sensor_id;sensor_type;location;lat;lon;timestamp;temperature;humidity
64034;SHT31;50280;49.864;8.638;2022-07-23T00:01:02;23.31;59.13
64034;SHT31;50280;49.864;8.638;2022-07-23T00:03:34;23.30;59.34
64034;SHT31;50280;49.864;8.638;2022-07-23T00:06:07;23.24;59.52
64034;SHT31;50280;49.864;8.638;2022-07-23T00:08:41;23.22;59.64
64034;SHT31;50280;49.864;8.638;2022-07-23T00:11:14;23.17;59.71
64034;SHT31;50280;49.864;8.638;2022-07-23T00:13:47;23.16;59.90
64034;SHT31;50280;49.864;8.638;2022-07-23T00:16:20;23.13;59.99
64034;SHT31;50280;49.864;8.638;2022-07-23T00:18:52;23.12;60.13
64034;SHT31;50280;49.864;8.638;2022-07-23T00:21:25;23.10;60.11
64034;SHT31;50280;49.864;8.638;2022-07-23T00:23:59;23.06;60.41
64034;SHT31;50280;49.864;8.638;2022-07-23T00:26:31;23.05;60.34
64034;SHT31;50280;49.864;8.638;2022-07-23T00:29:04;23.06;60.43
64034;SHT31;50280;49.864;8.638;2022-07-23T00:31:37;23.03;60.38
64034;SHT31;50280;49.864;8.638;2022-07-23T00:34:10;23.03;60.45
64034;SHT31;50280;49.864;8.638;2022-07-23T00:36:42;23.00;60.50
64034;SHT31;50280;49.864;8.638;2022-07-23T00:39:16;22.98;61.17
64034;SHT31;50280;49.864;8.638;2022-07-23T00:41:49;22.89;62.46
64034;SHT31;50280;49.864;8.638;2022-07-23T00:44:24;22.86;63.09
64034;SHT31;50280;49.864;8.638;2022-07-23T00:46:59;22.81;63.25
64034;SHT31;50280;49.864;8.638;2022-07-23T00:49:31;22.78;63.85
64034;SHT31;50280;49.864;8.638;2022-07-23T00:52:04;22.75;63.82
64034;SHT31;50280;49.864;8.638;2022-07-23T00:54:39;22.72;64.24
64034;SHT31;50280;49.864;8.638;2022-07-23T00:57:12;22.67;64.03
64034;SHT31;50280;49.864;8.638;2022-07-23T00:59:44;22.67;63.88
64034;SHT31;50280;49.864;8.638;2022-07-23T01:02:17;22.62;63.63
64034;SHT31;50280;49.864;8.638;2022-07-23T01:04:50;22.60;64.21
64034;SHT31;50280;49.864;8.638;2022-07-23T01:07:23;22.52;64.54
64034;SHT31;50280;49.864;8.638;2022-07-23T01:09:57;22.51;64.28
64034;SHT31;50280;49.864;8.638;2022-07-23T01:12:31;22.48;63.84
64034;SHT31;50280;49.864;8.638;2022-07-23T01:15:04;22.47;63.65
64034;SHT31;50280;49.864;8.638;2022-07-23T01:17:37;22.45;63.71
64034;SHT31;50280;49.864;8.638;2022-07-23T01:20:10;22.41;63.74
64034;SHT31;50280;49.864;8.638;2022-07-23T01:22:44;22.37;64.09
64034;SHT31;50280;49.864;8.638;2022-07-23T01:25:17;22.39;64.00
64034;SHT31;50280;49.864;8.638;2022-07-23T01:27:52;22.34;64.29
64034;SHT31;50280;49.864;8.638;2022-07-23T01:30:25;22.34;64.90
64034;SHT31;50280;49.864;8.638;2022-07-23T01:32:58;22.33;65.47
64034;SHT31;50280;49.864;8.638;2022-07-23T01:35:30;22.24;66.20
64034;SHT31;50280;49.864;8.638;2022-07-23T01:38:04;22.18;66.53
64034;SHT31;50280;49.864;8.638;2022-07-23T01:40:37;22.12;66.55
64034;SHT31;50280;49.864;8.638;2022-07-23T01:43:09;22.06;66.87
64034;SHT31;50280;49.864;8.638;2022-07-23T01:45:42;22.02;67.08
64034;SHT31;50280;49.864;8.638;2022-07-23T01:48:14;21.98;67.66
64034;SHT31;50280;49.864;8.638;2022-07-23T01:50:47;21.96;67.34
64034;SHT31;50280;49.864;8.638;2022-07-23T01:53:21;21.90;66.94
64034;SHT31;50280;49.864;8.638;2022-07-23T01:55:53;21.92;66.99
64034;SHT31;50280;49.864;8.638;2022-07-23T01:58:26;21.89;67.15
64034;SHT31;50280;49.864;8.638;2022-07-23T02:00:59;21.89;67.09
64034;SHT31;50280;49.864;8.638;2022-07-23T02:03:31;21.86;66.83
64034;SHT31;50280;49.864;8.638;2022-07-23T02:06:04;21.85;67.02
64034;SHT31;50280;49.864;8.638;2022-07-23T02:08:38;21.81;67.27
64034;SHT31;50280;49.864;8.638;2022-07-23T02:11:10;21.81;67.20
64034;SHT31;50280;49.864;8.638;2022-07-23T02:13:42;21.79;67.24
64034;SHT31;50280;49.864;8.638;2022-07-23T02:16:15;21.78;67.33
64034;SHT31;50280;49.864;8.638;2022-07-23T02:18:47;21.81;67.27
64034;SHT31;50280;49.864;8.638;2022-07-23T02:21:20;21.79;67.24
64034;SHT31;50280;49.864;8.638;2022-07-23T02:23:54;21.78;67.22
64034;SHT31;50280;49.864;8.638;2022-07-23T02:26:26;21.78;67.19
64034;SHT31;50280;49.864;8.638;2022-07-23T02:28:58;21.74;66.95
64034;SHT31;50280;49.864;8.638;2022-07-23T02:31:31;21.71;66.69
64034;SHT31;50280;49.864;8.638;2022-07-23T02:34:04;21.71;66.96
64034;SHT31;50280;49.864;8.638;2022-07-23T02:36:37;21.69;67.03
64034;SHT31;50280;49.864;8.638;2022-07-23T02:39:11;21.68;67.05
64034;SHT31;50280;49.864;8.638;2022-07-23T02:41:43;21.66;67.06
64034;SHT31;50280;49.864;8.638;2022-07-23T02:44:16;21.62;67.31
64034;SHT31;50280;49.864;8.638;2022-07-23T02:46:48;21.62;67.30
64034;SHT31;50280;49.864;8.638;2022-07-23T02:49:21;21.58;67.32
64034;SHT31;50280;49.864;8.638;2022-07-23T02:51:53;21.57;68.33
64034;SHT31;50280;49.864;8.638;2022-07-23T02:54:27;21.51;69.04
64034;SHT31;50280;49.864;8.638;2022-07-23T02:56:59;21.47;69.99
64034;SHT31;50280;49.864;8.638;2022-07-23T02:59:32;21.41;70.16
64034;SHT31;50280;49.864;8.638;2022-07-23T03:02:04;21.30;70.35
64034;SHT31;50280;49.864;8.638;2022-07-23T03:04:37;21.24;70.59
64034;SHT31;50280;49.864;8.638;2022-07-23T03:07:09;21.20;71.20
64034;SHT31;50280;49.864;8.638;2022-07-23T03:09:43;21.16;70.45
64034;SHT31;50280;49.864;8.638;2022-07-23T03:12:16;21.13;70.50
64034;SHT31;50280;49.864;8.638;2022-07-23T03:14:48;21.13;70.47
64034;SHT31;50280;49.864;8.638;2022-07-23T03:17:21;21.13;70.81
64034;SHT31;50280;49.864;8.638;2022-07-23T03:19:53;21.09;70.86
64034;SHT31;50280;49.864;8.638;2022-07-23T03:22:25;21.02;70.96
64034;SHT31;50280;49.864;8.638;2022-07-23T03:24:59;21.02;70.95
64034;SHT31;50280;49.864;8.638;2022-07-23T03:27:32;21.00;71.18
64034;SHT31;50280;49.864;8.638;2022-07-23T03:30:05;21.00;71.10
64034;SHT31;50280;49.864;8.638;2022-07-23T03:32:39;21.03;70.96
64034;SHT31;50280;49.864;8.638;2022-07-23T03:35:11;21.00;70.65
64034;SHT31;50280;49.864;8.638;2022-07-23T03:37:44;21.02;70.41
64034;SHT31;50280;49.864;8.638;2022-07-23T03:40:18;21.00;70.77
64034;SHT31;50280;49.864;8.638;2022-07-23T03:42:50;20.95;71.58
64034;SHT31;50280;49.864;8.638;2022-07-23T03:45:23;20.90;71.62
64034;SHT31;50280;49.864;8.638;2022-07-23T03:47:55;20.86;71.87
64034;SHT31;50280;49.864;8.638;2022-07-23T03:50:28;20.88;72.23
64034;SHT31;50280;49.864;8.638;2022-07-23T03:53:00;20.85;72.28
64034;SHT31;50280;49.864;8.638;2022-07-23T03:55:34;20.88;72.11
64034;SHT31;50280;49.864;8.638;2022-07-23T03:58:08;20.89;72.16
64034;SHT31;50280;49.864;8.638;2022-07-23T04:00:40;20.93;72.03
64034;SHT31;50280;49.864;8.638;2022-07-23T04:03:12;20.90;72.20
64034;SHT31;50280;49.864;8.638;2022-07-23T04:05:45;20.92;71.86
64034;SHT31;50280;49.864;8.638;2022-07-23T04:08:17;20.88;72.04
64034;SHT31;50280;49.864;8.638;2022-07-23T04:10:51;20.82;72.13
64034;SHT31;50280;49.864;8.638;2022-07-23T04:13:24;20.82;72.23
64034;SHT31;50280;49.864;8.638;2022-07-23T04:15:56;20.79;72.51
64034;SHT31;50280;49.864;8.638;2022-07-23T04:18:29;20.79;72.35
64034;SHT31;50280;49.864;8.638;2022-07-23T04:21:01;20.76;72.46
64034;SHT31;50280;49.864;8.638;2022-07-23T04:23:34;20.81;72.34
64034;SHT31;50280;49.864;8.638;2022-07-23T04:26:08;20.81;72.26
64034;SHT31;50280;49.864;8.638;2022-07-23T04:28:40;20.81;72.34
64034;SHT31;50280;49.864;8.638;2022-07-23T04:31:13;20.82;72.23
64034;SHT31;50280;49.864;8.638;2022-07-23T04:33:45;20.83;71.84
64034;SHT31;50280;49.864;8.638;2022-07-23T04:36:18;20.85;71.59
64034;SHT31;50280;49.864;8.638;2022-07-23T04:38:50;20.89;71.12
64034;SHT31;50280;49.864;8.638;2022-07-23T04:41:24;20.89;71.25
64034;SHT31;50280;49.864;8.638;2022-07-23T04:43:56;20.89;71.01
64034;SHT31;50280;49.864;8.638;2022-07-23T04:46:28;20.93;70.84
64034;SHT31;50280;49.864;8.638;2022-07-23T04:49:01;20.98;70.40
64034;SHT31;50280;49.864;8.638;2022-07-23T04:51:33;20.99;70.83
64034;SHT31;50280;49.864;8.638;2022-07-23T04:54:06;21.00;70.73
64034;SHT31;50280;49.864;8.638;2022-07-23T04:56:39;21.02;70.49
64034;SHT31;50280;49.864;8.638;2022-07-23T04:59:12;21.03;70.73
64034;SHT31;50280;49.864;8.638;2022-07-23T05:01:44;21.06;70.39
64034;SHT31;50280;49.864;8.638;2022-07-23T05:04:17;21.13;70.23
64034;SHT31;50280;49.864;8.638;2022-07-23T05:06:49;21.17;69.92
64034;SHT31;50280;49.864;8.638;2022-07-23T05:09:21;21.19;69.64
64034;SHT31;50280;49.864;8.638;2022-07-23T05:11:55;21.20;70.15
64034;SHT31;50280;49.864;8.638;2022-07-23T05:14:28;21.16;70.74
64034;SHT31;50280;49.864;8.638;2022-07-23T05:17:00;21.10;71.06
64034;SHT31;50280;49.864;8.638;2022-07-23T05:19:33;21.03;70.87
64034;SHT31;50280;49.864;8.638;2022-07-23T05:22:05;20.99;71.45
64034;SHT31;50280;49.864;8.638;2022-07-23T05:24:38;20.95;71.10
64034;SHT31;50280;49.864;8.638;2022-07-23T05:27:12;20.88;70.84
64034;SHT31;50280;49.864;8.638;2022-07-23T05:29:44;20.88;70.72
64034;SHT31;50280;49.864;8.638;2022-07-23T05:32:16;20.83;70.83
64034;SHT31;50280;49.864;8.638;2022-07-23T05:34:49;20.82;70.89
64034;SHT31;50280;49.864;8.638;2022-07-23T05:37:21;20.86;70.84
64034;SHT31;50280;49.864;8.638;2022-07-23T05:39:54;20.85;71.30
64034;SHT31;50280;49.864;8.638;2022-07-23T05:42:28;20.90;70.89
64034;SHT31;50280;49.864;8.638;2022-07-23T05:45:00;20.96;71.06
64034;SHT31;50280;49.864;8.638;2022-07-23T05:47:39;21.02;70.14
64034;SHT31;50280;49.864;8.638;2022-07-23T05:50:15;21.00;70.21
64034;SHT31;50280;49.864;8.638;2022-07-23T05:52:48;21.09;70.05
64034;SHT31;50280;49.864;8.638;2022-07-23T05:55:20;21.11;69.86
64034;SHT31;50280;49.864;8.638;2022-07-23T05:57:54;21.13;70.24
64034;SHT31;50280;49.864;8.638;2022-07-23T06:00:27;21.17;69.43
64034;SHT31;50280;49.864;8.638;2022-07-23T06:03:00;21.20;69.60
64034;SHT31;50280;49.864;8.638;2022-07-23T06:05:35;21.23;69.82
64034;SHT31;50280;49.864;8.638;2022-07-23T06:08:08;21.28;69.77
64034;SHT31;50280;49.864;8.638;2022-07-23T06:10:40;21.28;69.18
64034;SHT31;50280;49.864;8.638;2022-07-23T06:13:14;21.35;68.24
64034;SHT31;50280;49.864;8.638;2022-07-23T06:15:49;21.38;68.71
64034;SHT31;50280;49.864;8.638;2022-07-23T06:18:21;21.37;67.98
64034;SHT31;50280;49.864;8.638;2022-07-23T06:20:54;21.37;68.19
64034;SHT31;50280;49.864;8.638;2022-07-23T06:23:26;21.34;68.34
64034;SHT31;50280;49.864;8.638;2022-07-23T06:25:59;21.35;68.13
64034;SHT31;50280;49.864;8.638;2022-07-23T06:28:32;21.31;67.91
64034;SHT31;50280;49.864;8.638;2022-07-23T06:31:05;21.30;68.04
64034;SHT31;50280;49.864;8.638;2022-07-23T06:33:37;21.26;68.51
64034;SHT31;50280;49.864;8.638;2022-07-23T06:36:10;21.23;68.72
64034;SHT31;50280;49.864;8.638;2022-07-23T06:38:42;21.19;69.18
64034;SHT31;50280;49.864;8.638;2022-07-23T06:41:15;21.22;69.17
64034;SHT31;50280;49.864;8.638;2022-07-23T06:43:48;21.26;68.91
64034;SHT31;50280;49.864;8.638;2022-07-23T06:46:21;21.28;68.86
64034;SHT31;50280;49.864;8.638;2022-07-23T06:48:54;21.33;69.03
64034;SHT31;50280;49.864;8.638;2022-07-23T06:51:26;21.41;68.37
64034;SHT31;50280;49.864;8.638;2022-07-23T06:53:59;21.50;67.77
64034;SHT31;50280;49.864;8.638;2022-07-23T06:56:31;21.53;67.63
64034;SHT31;50280;49.864;8.638;2022-07-23T06:59:05;21.65;67.68
64034;SHT31;50280;49.864;8.638;2022-07-23T07:01:37;21.72;66.42
64034;SHT31;50280;49.864;8.638;2022-07-23T07:04:10;21.78;66.07
64034;SHT31;50280;49.864;8.638;2022-07-23T07:06:42;21.83;65.34
64034;SHT31;50280;49.864;8.638;2022-07-23T07:09:15;21.89;65.35
64034;SHT31;50280;49.864;8.638;2022-07-23T07:11:47;21.95;65.33
64034;SHT31;50280;49.864;8.638;2022-07-23T07:14:21;21.99;65.00
64034;SHT31;50280;49.864;8.638;2022-07-23T07:16:54;22.12;65.35
64034;SHT31;50280;49.864;8.638;2022-07-23T07:19:26;22.24;64.66
64034;SHT31;50280;49.864;8.638;2022-07-23T07:21:58;22.34;64.25
64034;SHT31;50280;49.864;8.638;2022-07-23T07:24:31;22.47;64.51
64034;SHT31;50280;49.864;8.638;2022-07-23T07:27:03;22.58;63.89
64034;SHT31;50280;49.864;8.638;2022-07-23T07:29:38;22.73;62.87
64034;SHT31;50280;49.864;8.638;2022-07-23T07:32:10;22.89;62.22
64034;SHT31;50280;49.864;8.638;2022-07-23T07:34:43;23.00;61.56
64034;SHT31;50280;49.864;8.638;2022-07-23T07:37:15;23.12;61.61
64034;SHT31;50280;49.864;8.638;2022-07-23T07:39:47;23.22;60.89
64034;SHT31;50280;49.864;8.638;2022-07-23T07:42:20;23.39;60.42
64034;SHT31;50280;49.864;8.638;2022-07-23T07:44:54;23.53;59.80
64034;SHT31;50280;49.864;8.638;2022-07-23T07:47:26;23.60;58.99
64034;SHT31;50280;49.864;8.638;2022-07-23T07:49:59;23.65;58.81
64034;SHT31;50280;49.864;8.638;2022-07-23T07:52:31;23.81;58.56
64034;SHT31;50280;49.864;8.638;2022-07-23T07:55:06;23.90;58.13
64034;SHT31;50280;49.864;8.638;2022-07-23T07:57:42;23.92;57.94
64034;SHT31;50280;49.864;8.638;2022-07-23T08:00:16;23.96;57.93
64034;SHT31;50280;49.864;8.638;2022-07-23T08:02:51;23.99;57.94
64034;SHT31;50280;49.864;8.638;2022-07-23T08:05:28;23.99;57.52
64034;SHT31;50280;49.864;8.638;2022-07-23T08:08:02;23.99;57.95
64034;SHT31;50280;49.864;8.638;2022-07-23T08:10:35;24.01;57.70
64034;SHT31;50280;49.864;8.638;2022-07-23T08:13:08;24.02;57.34
64034;SHT31;50280;49.864;8.638;2022-07-23T08:15:46;23.95;57.90
64034;SHT31;50280;49.864;8.638;2022-07-23T08:18:19;23.92;57.61
64034;SHT31;50280;49.864;8.638;2022-07-23T08:20:52;23.89;57.83
64034;SHT31;50280;49.864;8.638;2022-07-23T08:23:24;23.81;58.11
64034;SHT31;50280;49.864;8.638;2022-07-23T08:25:57;23.77;58.05
64034;SHT31;50280;49.864;8.638;2022-07-23T08:28:29;23.85;57.85
64034;SHT31;50280;49.864;8.638;2022-07-23T08:31:04;23.94;56.99
64034;SHT31;50280;49.864;8.638;2022-07-23T08:33:36;24.09;56.77
64034;SHT31;50280;49.864;8.638;2022-07-23T08:36:09;24.37;55.92
64034;SHT31;50280;49.864;8.638;2022-07-23T08:38:41;24.71;54.56
64034;SHT31;50280;49.864;8.638;2022-07-23T08:41:14;25.08;53.64
64034;SHT31;50280;49.864;8.638;2022-07-23T08:43:48;25.50;53.76
64034;SHT31;50280;49.864;8.638;2022-07-23T08:46:22;25.96;52.02
64034;SHT31;50280;49.864;8.638;2022-07-23T08:48:56;26.32;50.34
64034;SHT31;50280;49.864;8.638;2022-07-23T08:51:29;26.63;49.95
64034;SHT31;50280;49.864;8.638;2022-07-23T08:54:02;26.96;48.97
64034;SHT31;50280;49.864;8.638;2022-07-23T08:56:35;27.27;48.42
64034;SHT31;50280;49.864;8.638;2022-07-23T08:59:08;27.55;47.51
64034;SHT31;50280;49.864;8.638;2022-07-23T09:01:42;27.85;47.23
64034;SHT31;50280;49.864;8.638;2022-07-23T09:04:15;28.01;45.64
64034;SHT31;50280;49.864;8.638;2022-07-23T09:06:47;28.09;45.16
64034;SHT31;50280;49.864;8.638;2022-07-23T09:09:20;28.10;45.43
64034;SHT31;50280;49.864;8.638;2022-07-23T09:12:02;28.17;45.71
64034;SHT31;50280;49.864;8.638;2022-07-23T09:14:38;28.36;45.42
64034;SHT31;50280;49.864;8.638;2022-07-23T09:17:16;28.57;44.25
64034;SHT31;50280;49.864;8.638;2022-07-23T09:19:50;28.77;44.30
64034;SHT31;50280;49.864;8.638;2022-07-23T09:22:24;28.82;43.52
64034;SHT31;50280;49.864;8.638;2022-07-23T09:25:06;28.88;44.01
64034;SHT31;50280;49.864;8.638;2022-07-23T09:27:49;28.92;43.38
64034;SHT31;50280;49.864;8.638;2022-07-23T09:30:30;28.96;43.42
64034;SHT31;50280;49.864;8.638;2022-07-23T09:33:07;28.95;43.46
64034;SHT31;50280;49.864;8.638;2022-07-23T09:35:46;28.95;42.81
64034;SHT31;50280;49.864;8.638;2022-07-23T09:38:23;28.87;42.81
64034;SHT31;50280;49.864;8.638;2022-07-23T09:41:06;28.84;43.06
64034;SHT31;50280;49.864;8.638;2022-07-23T09:43:40;28.95;42.48
64034;SHT31;50280;49.864;8.638;2022-07-23T09:46:20;28.72;42.66
64034;SHT31;50280;49.864;8.638;2022-07-23T09:48:56;28.63;43.38
64034;SHT31;50280;49.864;8.638;2022-07-23T09:51:29;28.75;43.20
64034;SHT31;50280;49.864;8.638;2022-07-23T09:54:02;29.12;44.10
64034;SHT31;50280;49.864;8.638;2022-07-23T09:56:36;29.60;42.48
64034;SHT31;50280;49.864;8.638;2022-07-23T09:59:11;30.18;41.46
64034;SHT31;50280;49.864;8.638;2022-07-23T10:01:44;30.70;40.38
64034;SHT31;50280;49.864;8.638;2022-07-23T10:04:19;31.19;38.78
64034;SHT31;50280;49.864;8.638;2022-07-23T10:06:55;31.42;37.55
64034;SHT31;50280;49.864;8.638;2022-07-23T10:09:33;31.45;37.49
64034;SHT31;50280;49.864;8.638;2022-07-23T10:12:11;31.33;38.27
64034;SHT31;50280;49.864;8.638;2022-07-23T10:14:45;30.88;39.00
64034;SHT31;50280;49.864;8.638;2022-07-23T10:17:18;30.47;40.35
64034;SHT31;50280;49.864;8.638;2022-07-23T10:19:52;30.61;39.66
64034;SHT31;50280;49.864;8.638;2022-07-23T10:22:27;30.96;39.71
64034;SHT31;50280;49.864;8.638;2022-07-23T10:25:12;31.21;37.82
64034;SHT31;50280;49.864;8.638;2022-07-23T10:28:13;31.45;38.49
64034;SHT31;50280;49.864;8.638;2022-07-23T10:31:20;31.26;37.98
64034;SHT31;50280;49.864;8.638;2022-07-23T10:34:15;30.87;37.56
64034;SHT31;50280;49.864;8.638;2022-07-23T10:37:03;30.84;37.72
64034;SHT31;50280;49.864;8.638;2022-07-23T10:39:45;31.05;38.40
64034;SHT31;50280;49.864;8.638;2022-07-23T10:42:18;31.33;37.24
64034;SHT31;50280;49.864;8.638;2022-07-23T10:44:50;30.96;37.89
64034;SHT31;50280;49.864;8.638;2022-07-23T10:47:27;30.47;38.79
64034;SHT31;50280;49.864;8.638;2022-07-23T10:50:17;30.25;39.70
64034;SHT31;50280;49.864;8.638;2022-07-23T10:53:10;29.88;40.45
64034;SHT31;50280;49.864;8.638;2022-07-23T10:55:50;29.87;41.49
64034;SHT31;50280;49.864;8.638;2022-07-23T10:58:48;29.91;41.58
64034;SHT31;50280;49.864;8.638;2022-07-23T11:01:35;30.06;40.83
64034;SHT31;50280;49.864;8.638;2022-07-23T11:04:09;30.40;39.54
64034;SHT31;50280;49.864;8.638;2022-07-23T11:07:06;30.30;40.25
64034;SHT31;50280;49.864;8.638;2022-07-23T11:09:42;30.15;40.40
64034;SHT31;50280;49.864;8.638;2022-07-23T11:12:33;30.63;38.90
64034;SHT31;50280;49.864;8.638;2022-07-23T11:15:09;30.85;39.21
64034;SHT31;50280;49.864;8.638;2022-07-23T11:17:58;30.53;40.10
64034;SHT31;50280;49.864;8.638;2022-07-23T11:20:32;30.30;39.36
64034;SHT31;50280;49.864;8.638;2022-07-23T11:23:04;30.06;39.80
64034;SHT31;50280;49.864;8.638;2022-07-23T11:25:38;29.80;39.75
64034;SHT31;50280;49.864;8.638;2022-07-23T11:28:15;29.80;39.72
64034;SHT31;50280;49.864;8.638;2022-07-23T11:30:50;30.05;40.93
64034;SHT31;50280;49.864;8.638;2022-07-23T11:33:22;30.02;39.99
64034;SHT31;50280;49.864;8.638;2022-07-23T11:36:04;29.91;40.76
64034;SHT31;50280;49.864;8.638;2022-07-23T11:38:38;30.30;39.57
64034;SHT31;50280;49.864;8.638;2022-07-23T11:41:13;30.81;39.09
64034;SHT31;50280;49.864;8.638;2022-07-23T11:43:46;30.94;38.71
64034;SHT31;50280;49.864;8.638;2022-07-23T11:46:18;30.96;39.38
64034;SHT31;50280;49.864;8.638;2022-07-23T11:49:01;31.46;38.23
64034;SHT31;50280;49.864;8.638;2022-07-23T11:51:34;32.08;36.59
64034;SHT31;50280;49.864;8.638;2022-07-23T11:54:07;32.59;36.14
64034;SHT31;50280;49.864;8.638;2022-07-23T11:59:39;33.49;34.19
64034;SHT31;50280;49.864;8.638;2022-07-23T12:02:14;33.66;34.08
64034;SHT31;50280;49.864;8.638;2022-07-23T12:04:48;33.46;33.83
64034;SHT31;50280;49.864;8.638;2022-07-23T12:07:31;33.04;35.32
64034;SHT31;50280;49.864;8.638;2022-07-23T12:10:11;32.64;35.92
64034;SHT31;50280;49.864;8.638;2022-07-23T12:12:49;32.56;35.82
64034;SHT31;50280;49.864;8.638;2022-07-23T12:15:28;32.12;34.62
64034;SHT31;50280;49.864;8.638;2022-07-23T12:18:03;31.77;35.82
64034;SHT31;50280;49.864;8.638;2022-07-23T12:20:40;31.78;35.55
64034;SHT31;50280;49.864;8.638;2022-07-23T12:23:18;31.78;35.46
64034;SHT31;50280;49.864;8.638;2022-07-23T12:25:53;31.92;35.31
64034;SHT31;50280;49.864;8.638;2022-07-23T12:28:31;31.92;35.31
64034;SHT31;50280;49.864;8.638;2022-07-23T12:31:06;32.09;34.89
64034;SHT31;50280;49.864;8.638;2022-07-23T12:33:41;32.35;34.19
64034;SHT31;50280;49.864;8.638;2022-07-23T12:36:13;32.60;34.47
64034;SHT31;50280;49.864;8.638;2022-07-23T12:38:48;32.46;34.97
64034;SHT31;50280;49.864;8.638;2022-07-23T12:41:21;32.15;35.18
64034;SHT31;50280;49.864;8.638;2022-07-23T12:43:53;31.81;35.20
64034;SHT31;50280;49.864;8.638;2022-07-23T12:46:27;31.45;38.64
64034;SHT31;50280;49.864;8.638;2022-07-23T12:49:05;30.96;37.28
64034;SHT31;50280;49.864;8.638;2022-07-23T12:51:39;30.61;36.59
64034;SHT31;50280;49.864;8.638;2022-07-23T12:54:11;30.41;37.86
64034;SHT31;50280;49.864;8.638;2022-07-23T12:56:45;30.25;38.62
64034;SHT31;50280;49.864;8.638;2022-07-23T12:59:17;30.04;39.05
64034;SHT31;50280;49.864;8.638;2022-07-23T13:01:55;29.88;37.65
64034;SHT31;50280;49.864;8.638;2022-07-23T13:04:29;29.74;37.91
64034;SHT31;50280;49.864;8.638;2022-07-23T13:07:02;29.49;36.95
64034;SHT31;50280;49.864;8.638;2022-07-23T13:09:35;29.37;37.33
64034;SHT31;50280;49.864;8.638;2022-07-23T13:12:07;29.95;37.73
64034;SHT31;50280;49.864;8.638;2022-07-23T13:14:40;30.87;37.02
64034;SHT31;50280;49.864;8.638;2022-07-23T13:17:14;31.73;37.09
64034;SHT31;50280;49.864;8.638;2022-07-23T13:19:47;32.52;33.64
64034;SHT31;50280;49.864;8.638;2022-07-23T13:22:19;32.98;33.32
64034;SHT31;50280;49.864;8.638;2022-07-23T13:24:52;33.19;32.01
64034;SHT31;50280;49.864;8.638;2022-07-23T13:27:24;33.32;30.82
64034;SHT31;50280;49.864;8.638;2022-07-23T13:29:57;33.38;31.16
64034;SHT31;50280;49.864;8.638;2022-07-23T13:32:30;33.74;30.85
64034;SHT31;50280;49.864;8.638;2022-07-23T13:35:04;34.34;30.51
64034;SHT31;50280;49.864;8.638;2022-07-23T13:37:37;35.01;28.48
64034;SHT31;50280;49.864;8.638;2022-07-23T13:40:10;35.03;28.18
64034;SHT31;50280;49.864;8.638;2022-07-23T13:42:43;35.13;28.86
64034;SHT31;50280;49.864;8.638;2022-07-23T13:45:16;35.62;28.78
64034;SHT31;50280;49.864;8.638;2022-07-23T13:47:50;36.28;27.61
64034;SHT31;50280;49.864;8.638;2022-07-23T13:50:23;36.75;26.48
64034;SHT31;50280;49.864;8.638;2022-07-23T13:52:55;36.88;25.80
64034;SHT31;50280;49.864;8.638;2022-07-23T13:55:28;36.52;26.49
64034;SHT31;50280;49.864;8.638;2022-07-23T13:58:01;35.65;27.84
64034;SHT31;50280;49.864;8.638;2022-07-23T14:00:37;35.17;27.86
64034;SHT31;50280;49.864;8.638;2022-07-23T14:03:15;34.97;28.88
64034;SHT31;50280;49.864;8.638;2022-07-23T14:05:49;35.31;28.86
64034;SHT31;50280;49.864;8.638;2022-07-23T14:08:21;35.82;28.16
64034;SHT31;50280;49.864;8.638;2022-07-23T14:10:54;36.33;26.50
64034;SHT31;50280;49.864;8.638;2022-07-23T14:13:26;36.30;25.94
64034;SHT31;50280;49.864;8.638;2022-07-23T14:15:59;35.73;26.93
64034;SHT31;50280;49.864;8.638;2022-07-23T14:18:33;35.45;28.10
64034;SHT31;50280;49.864;8.638;2022-07-23T14:21:05;35.73;27.47
64034;SHT31;50280;49.864;8.638;2022-07-23T14:23:38;36.21;27.67
64034;SHT31;50280;49.864;8.638;2022-07-23T14:26:10;36.88;26.06
64034;SHT31;50280;49.864;8.638;2022-07-23T14:28:43;37.53;25.14
64034;SHT31;50280;49.864;8.638;2022-07-23T14:31:15;37.98;24.86
64034;SHT31;50280;49.864;8.638;2022-07-23T14:33:49;38.19;23.95
64034;SHT31;50280;49.864;8.638;2022-07-23T14:36:22;38.20;23.48
64034;SHT31;50280;49.864;8.638;2022-07-23T14:38:54;37.60;23.45
64034;SHT31;50280;49.864;8.638;2022-07-23T14:41:27;37.12;23.29
64034;SHT31;50280;49.864;8.638;2022-07-23T14:43:59;36.58;24.39
64034;SHT31;50280;49.864;8.638;2022-07-23T14:46:32;36.28;25.22
64034;SHT31;50280;49.864;8.638;2022-07-23T14:49:06;36.23;25.14
64034;SHT31;50280;49.864;8.638;2022-07-23T14:51:39;36.33;25.29
64034;SHT31;50280;49.864;8.638;2022-07-23T14:54:12;36.44;25.57
64034;SHT31;50280;49.864;8.638;2022-07-23T14:56:46;36.44;25.54
64034;SHT31;50280;49.864;8.638;2022-07-23T14:59:19;36.33;25.27
64034;SHT31;50280;49.864;8.638;2022-07-23T15:01:52;35.99;26.10
64034;SHT31;50280;49.864;8.638;2022-07-23T15:04:26;35.79;26.12
64034;SHT31;50280;49.864;8.638;2022-07-23T15:06:58;35.39;26.24
64034;SHT31;50280;49.864;8.638;2022-07-23T15:09:31;35.21;26.34
64034;SHT31;50280;49.864;8.638;2022-07-23T15:12:04;35.00;26.83
64034;SHT31;50280;49.864;8.638;2022-07-23T15:14:37;34.99;27.76
64034;SHT31;50280;49.864;8.638;2022-07-23T15:17:10;35.17;27.66
64034;SHT31;50280;49.864;8.638;2022-07-23T15:19:44;35.13;26.30
64034;SHT31;50280;49.864;8.638;2022-07-23T15:22:16;34.82;26.51
64034;SHT31;50280;49.864;8.638;2022-07-23T15:24:49;34.48;26.68
64034;SHT31;50280;49.864;8.638;2022-07-23T15:27:21;34.29;27.37
64034;SHT31;50280;49.864;8.638;2022-07-23T15:29:53;34.27;28.00
64034;SHT31;50280;49.864;8.638;2022-07-23T15:32:26;34.07;28.34
64034;SHT31;50280;49.864;8.638;2022-07-23T15:35:00;33.86;28.91
64034;SHT31;50280;49.864;8.638;2022-07-23T15:37:32;33.69;28.94
64034;SHT31;50280;49.864;8.638;2022-07-23T15:40:06;33.33;29.91
64034;SHT31;50280;49.864;8.638;2022-07-23T15:42:40;33.14;30.11
64034;SHT31;50280;49.864;8.638;2022-07-23T15:45:12;32.86;30.58
64034;SHT31;50280;49.864;8.638;2022-07-23T15:47:46;32.62;31.20
64034;SHT31;50280;49.864;8.638;2022-07-23T15:50:21;32.35;31.49
64034;SHT31;50280;49.864;8.638;2022-07-23T15:52:53;32.39;31.63
64034;SHT31;50280;49.864;8.638;2022-07-23T15:55:26;32.51;31.32
64034;SHT31;50280;49.864;8.638;2022-07-23T15:57:58;32.57;31.16
64034;SHT31;50280;49.864;8.638;2022-07-23T16:00:31;32.59;31.18
64034;SHT31;50280;49.864;8.638;2022-07-23T16:03:03;32.63;30.98
64034;SHT31;50280;49.864;8.638;2022-07-23T16:05:37;32.67;31.06
64034;SHT31;50280;49.864;8.638;2022-07-23T16:08:10;32.73;31.22
64034;SHT31;50280;49.864;8.638;2022-07-23T16:10:42;32.77;30.45
64034;SHT31;50280;49.864;8.638;2022-07-23T16:13:15;32.69;30.61
64034;SHT31;50280;49.864;8.638;2022-07-23T16:15:47;32.63;30.74